Aeroporto :
LOGIN :

Iscrizione | Disclaimer

   EN    FR    IT 

 










Sommario :    VFR   VFR Marginale   IFR   IFR Intensivo   IFR Molto Intensivo
Visibilità : 
Base nubi : 
>= 8 km
>= 3000ft
5 / 8 km
1000 / 3000 ft
1500m / 5 km
500 / 1000 ft
800 / 1500m
200 / 500 ft
< 800m
< 200 ft
Simboli :   Temporali  Nebbia  Neve Forte  Precipitazioni Forti  Vento > 20 kt
SIGMETs :   Varie  Temporali  Ghiacco  Turbolenza  Onda orograficha  Ceneri Vulcaniche






- Altitudine del aeroporto : 1197 ft
- Codice IATA : SPM


ETAD - Spangdahlem Ab

ULTIMO METAR :
  • 200827Z 27007KT 9999 -RA SCT011 01/01 A3026 RMK AO2A RAE05RASNB14E26RAB26 SLP256 TSNO $

METARs OBSOLETI :
  • 200825Z 27007KT 9999 -RASN SCT011 01/01 A3026 RMK RAE05RASNB14 SLP256 TSNO $
  • 200805Z 26006KT 9999 FEW012 01/01 A3025 RMK AO2A RAE05 SLP253 TSNO $
  • 200756Z 26006KT 9999 -RA FEW010 01/01 A3025 RMK AO2A RAE0658 SLP253 P0001 T00120009 TSNO $
  • 200740Z AUTO 26006KT 9999 -FZRA FEW008 01/01 A3025 RMK AO2 RAE0658FZRAB40 SLP253 TSNO $
  • 200713Z AUTO 26008KT 9999 FEW010 01/01 A3024 RMK AO2 RAE0658 SLP250 TSNO $
  • 200658Z 28008KT 9999 BKN010 01/01 A3023 RMK AO2A RAE58 CIG 008V010 SLP246 TSNO $
  • 200620Z AUTO 26006KT 9999 -RA FEW012 01/01 A3023 RMK AO2 RAB12E13DZB13E16RAB16 SLP246 TSNO $
  • 200613Z AUTO 26004KT 9999 -RA CLR 01/01 A3022 RMK AO2 RAB12 SLP243 TSNO $
  • 200556Z 29006KT 9999 CLR 01/00 A3022 RMK AO2A UPB0456E15 SLP243 P0000 60000 T00080004 10021 21009 55001 TSNO $

TAF TAF ETAD
Valido dal 20 a 05 ore il 21 a 11 ore UTC


200500Z 2005/2111 27006KT 9999 SCT015 BKN020 620205 QNH3020INS
TEMPO 2005/2008 5000 BR BKN015
BECMG 2009/2010 33015G20KT 9999 SCT015 BKN025 620254 QNH3029INS
TEMPO 2010/2012 6000 -RASN OVC015
BECMG 2018/2019 33010G15KT 9999 SCT020 BKN030 620304 QNH3038INS
BECMG 2100/2101 32009KT 9999 SCT030 QNH3047INS TX02/2013Z TNM02/2103Z



MetMap, La meteo Aeronautica in un colpo d'occhio ! - Copyright ORBIFLY Dicembre 2007 - Disclaimer

ORBIFLY MET'MAP TEAM :

Programmazione e sviluppo : Alexandra Zaïnal
Concezione : Baudouin d'Aumeries
Aiuto per la programmazione : Marc-Olivier Méhu
Supporto tecnico e logistico : Manuel Goepfert
Aiuto per la traduzione : Arnaldo La Scala

Contatto : metmap@orbifly.com




FONTI E CREDITI :

   NOAA